sensor_id;sensor_type;location;lat;lon;timestamp;P1;durP1;ratioP1;P2;durP2;ratioP2
34142;SDS011;20419;10.658;106.724;2023-03-14T00:01:26;15.95;;;12.07;;
34142;SDS011;20419;10.658;106.724;2023-03-14T00:03:53;14.65;;;11.45;;
34142;SDS011;20419;10.658;106.724;2023-03-14T00:06:20;15.68;;;12.15;;
34142;SDS011;20419;10.658;106.724;2023-03-14T00:08:47;15.73;;;12.43;;
34142;SDS011;20419;10.658;106.724;2023-03-14T00:11:16;14.38;;;11.15;;
34142;SDS011;20419;10.658;106.724;2023-03-14T00:13:43;14.77;;;12.00;;
34142;SDS011;20419;10.658;106.724;2023-03-14T00:16:12;16.40;;;11.85;;
34142;SDS011;20419;10.658;106.724;2023-03-14T00:18:39;17.17;;;12.88;;
34142;SDS011;20419;10.658;106.724;2023-03-14T00:21:07;14.95;;;12.05;;
34142;SDS011;20419;10.658;106.724;2023-03-14T00:23:35;18.02;;;12.05;;
34142;SDS011;20419;10.658;106.724;2023-03-14T00:26:03;16.42;;;11.63;;
34142;SDS011;20419;10.658;106.724;2023-03-14T00:28:30;15.13;;;11.73;;
34142;SDS011;20419;10.658;106.724;2023-03-14T00:30:57;15.55;;;12.05;;
34142;SDS011;20419;10.658;106.724;2023-03-14T00:33:24;15.27;;;11.98;;
34142;SDS011;20419;10.658;106.724;2023-03-14T00:35:58;16.40;;;11.88;;
34142;SDS011;20419;10.658;106.724;2023-03-14T00:38:26;14.70;;;11.85;;
34142;SDS011;20419;10.658;106.724;2023-03-14T00:40:53;16.02;;;12.23;;
34142;SDS011;20419;10.658;106.724;2023-03-14T00:43:20;16.10;;;12.20;;
34142;SDS011;20419;10.658;106.724;2023-03-14T00:45:48;17.88;;;13.07;;
34142;SDS011;20419;10.658;106.724;2023-03-14T00:48:15;15.68;;;12.05;;
34142;SDS011;20419;10.658;106.724;2023-03-14T00:50:42;13.60;;;11.85;;
34142;SDS011;20419;10.658;106.724;2023-03-14T00:53:09;14.15;;;11.68;;
34142;SDS011;20419;10.658;106.724;2023-03-14T00:55:37;17.15;;;12.68;;
34142;SDS011;20419;10.658;106.724;2023-03-14T00:58:04;14.50;;;11.70;;
34142;SDS011;20419;10.658;106.724;2023-03-14T01:00:31;14.98;;;12.10;;
34142;SDS011;20419;10.658;106.724;2023-03-14T01:02:59;16.47;;;13.10;;
34142;SDS011;20419;10.658;106.724;2023-03-14T01:05:27;14.70;;;12.18;;
34142;SDS011;20419;10.658;106.724;2023-03-14T01:07:55;16.63;;;13.52;;
34142;SDS011;20419;10.658;106.724;2023-03-14T01:10:22;17.85;;;13.55;;
34142;SDS011;20419;10.658;106.724;2023-03-14T01:12:49;18.10;;;12.45;;
34142;SDS011;20419;10.658;106.724;2023-03-14T01:15:16;16.10;;;12.98;;
34142;SDS011;20419;10.658;106.724;2023-03-14T01:17:43;14.98;;;12.73;;
34142;SDS011;20419;10.658;106.724;2023-03-14T01:20:11;17.98;;;12.55;;
34142;SDS011;20419;10.658;106.724;2023-03-14T01:22:47;16.40;;;12.90;;
34142;SDS011;20419;10.658;106.724;2023-03-14T01:27:49;16.40;;;12.80;;
34142;SDS011;20419;10.658;106.724;2023-03-14T01:30:16;17.90;;;12.38;;
34142;SDS011;20419;10.658;106.724;2023-03-14T01:32:43;19.83;;;13.27;;
34142;SDS011;20419;10.658;106.724;2023-03-14T01:35:10;17.48;;;13.48;;
34142;SDS011;20419;10.658;106.724;2023-03-14T01:37:37;19.05;;;13.75;;
34142;SDS011;20419;10.658;106.724;2023-03-14T01:40:04;17.40;;;12.90;;
34142;SDS011;20419;10.658;106.724;2023-03-14T01:42:31;15.63;;;13.10;;
34142;SDS011;20419;10.658;106.724;2023-03-14T01:44:59;23.58;;;14.25;;
34142;SDS011;20419;10.658;106.724;2023-03-14T01:47:26;19.00;;;13.17;;
34142;SDS011;20419;10.658;106.724;2023-03-14T01:50:02;19.25;;;13.50;;
34142;SDS011;20419;10.658;106.724;2023-03-14T01:52:32;22.70;;;14.13;;
34142;SDS011;20419;10.658;106.724;2023-03-14T01:55:04;17.38;;;13.85;;
34142;SDS011;20419;10.658;106.724;2023-03-14T01:57:33;17.15;;;13.45;;
34142;SDS011;20419;10.658;106.724;2023-03-14T02:00:12;20.02;;;13.05;;
34142;SDS011;20419;10.658;106.724;2023-03-14T02:02:41;18.88;;;13.82;;
34142;SDS011;20419;10.658;106.724;2023-03-14T02:05:10;18.55;;;13.55;;
34142;SDS011;20419;10.658;106.724;2023-03-14T02:07:40;20.23;;;13.30;;
34142;SDS011;20419;10.658;106.724;2023-03-14T02:10:08;18.42;;;13.63;;
34142;SDS011;20419;10.658;106.724;2023-03-14T02:12:36;17.10;;;14.32;;
34142;SDS011;20419;10.658;106.724;2023-03-14T02:15:03;18.17;;;14.65;;
34142;SDS011;20419;10.658;106.724;2023-03-14T02:17:30;20.23;;;13.27;;
34142;SDS011;20419;10.658;106.724;2023-03-14T02:22:29;16.42;;;13.43;;
34142;SDS011;20419;10.658;106.724;2023-03-14T02:25:02;18.85;;;14.63;;
34142;SDS011;20419;10.658;106.724;2023-03-14T02:27:31;19.77;;;14.00;;
34142;SDS011;20419;10.658;106.724;2023-03-14T02:30:02;20.70;;;15.07;;
34142;SDS011;20419;10.658;106.724;2023-03-14T02:32:30;21.50;;;13.73;;
34142;SDS011;20419;10.658;106.724;2023-03-14T02:34:59;19.90;;;14.20;;
34142;SDS011;20419;10.658;106.724;2023-03-14T02:37:30;19.40;;;14.52;;
34142;SDS011;20419;10.658;106.724;2023-03-14T02:39:59;18.33;;;14.30;;
34142;SDS011;20419;10.658;106.724;2023-03-14T02:42:26;17.75;;;14.93;;
34142;SDS011;20419;10.658;106.724;2023-03-14T02:44:55;19.58;;;15.23;;
34142;SDS011;20419;10.658;106.724;2023-03-14T02:47:29;20.88;;;14.15;;
34142;SDS011;20419;10.658;106.724;2023-03-14T02:50:01;20.48;;;13.38;;
34142;SDS011;20419;10.658;106.724;2023-03-14T02:52:29;17.48;;;14.35;;
34142;SDS011;20419;10.658;106.724;2023-03-14T02:54:56;19.00;;;14.48;;
34142;SDS011;20419;10.658;106.724;2023-03-14T02:57:24;19.73;;;14.10;;
34142;SDS011;20419;10.658;106.724;2023-03-14T02:59:51;19.55;;;14.95;;
34142;SDS011;20419;10.658;106.724;2023-03-14T03:02:18;18.35;;;14.00;;
34142;SDS011;20419;10.658;106.724;2023-03-14T03:04:45;23.23;;;15.05;;
34142;SDS011;20419;10.658;106.724;2023-03-14T03:07:12;18.83;;;15.02;;
34142;SDS011;20419;10.658;106.724;2023-03-14T03:09:39;19.65;;;14.80;;
34142;SDS011;20419;10.658;106.724;2023-03-14T03:12:07;21.02;;;14.50;;
34142;SDS011;20419;10.658;106.724;2023-03-14T03:14:35;21.10;;;15.65;;
34142;SDS011;20419;10.658;106.724;2023-03-14T03:17:05;19.43;;;14.37;;
34142;SDS011;20419;10.658;106.724;2023-03-14T03:19:33;19.45;;;14.75;;
34142;SDS011;20419;10.658;106.724;2023-03-14T03:22:00;20.27;;;15.30;;
34142;SDS011;20419;10.658;106.724;2023-03-14T03:24:27;19.27;;;14.65;;
34142;SDS011;20419;10.658;106.724;2023-03-14T03:26:55;19.70;;;15.38;;
34142;SDS011;20419;10.658;106.724;2023-03-14T03:29:22;18.73;;;15.02;;
34142;SDS011;20419;10.658;106.724;2023-03-14T03:31:48;18.52;;;14.20;;
34142;SDS011;20419;10.658;106.724;2023-03-14T03:34:15;18.65;;;14.52;;
34142;SDS011;20419;10.658;106.724;2023-03-14T03:36:42;19.50;;;14.88;;
34142;SDS011;20419;10.658;106.724;2023-03-14T03:39:09;18.48;;;14.75;;
34142;SDS011;20419;10.658;106.724;2023-03-14T03:41:36;17.95;;;13.77;;
34142;SDS011;20419;10.658;106.724;2023-03-14T03:44:03;18.73;;;14.65;;
34142;SDS011;20419;10.658;106.724;2023-03-14T03:46:31;17.63;;;14.38;;
34142;SDS011;20419;10.658;106.724;2023-03-14T03:48:59;19.52;;;14.90;;
34142;SDS011;20419;10.658;106.724;2023-03-14T03:51:26;21.83;;;15.43;;
34142;SDS011;20419;10.658;106.724;2023-03-14T03:53:53;18.25;;;14.43;;
34142;SDS011;20419;10.658;106.724;2023-03-14T03:56:20;19.65;;;14.80;;
34142;SDS011;20419;10.658;106.724;2023-03-14T03:58:47;20.70;;;14.48;;
34142;SDS011;20419;10.658;106.724;2023-03-14T04:01:14;17.95;;;14.73;;
34142;SDS011;20419;10.658;106.724;2023-03-14T04:03:41;17.80;;;13.65;;
34142;SDS011;20419;10.658;106.724;2023-03-14T04:06:09;20.38;;;14.65;;
34142;SDS011;20419;10.658;106.724;2023-03-14T04:08:36;16.55;;;14.02;;
34142;SDS011;20419;10.658;106.724;2023-03-14T04:11:13;17.83;;;13.48;;
34142;SDS011;20419;10.658;106.724;2023-03-14T04:13:40;17.35;;;14.18;;
34142;SDS011;20419;10.658;106.724;2023-03-14T04:16:14;21.95;;;14.40;;
34142;SDS011;20419;10.658;106.724;2023-03-14T04:18:42;16.88;;;13.95;;
34142;SDS011;20419;10.658;106.724;2023-03-14T04:21:09;16.05;;;14.18;;
34142;SDS011;20419;10.658;106.724;2023-03-14T04:23:36;19.17;;;14.38;;
34142;SDS011;20419;10.658;106.724;2023-03-14T04:26:03;16.13;;;13.20;;
34142;SDS011;20419;10.658;106.724;2023-03-14T04:28:31;19.73;;;13.50;;
34142;SDS011;20419;10.658;106.724;2023-03-14T04:30:58;16.70;;;14.07;;
34142;SDS011;20419;10.658;106.724;2023-03-14T04:33:25;16.92;;;13.65;;
34142;SDS011;20419;10.658;106.724;2023-03-14T04:35:55;17.63;;;14.50;;
34142;SDS011;20419;10.658;106.724;2023-03-14T04:38:22;19.02;;;14.15;;
34142;SDS011;20419;10.658;106.724;2023-03-14T04:40:49;17.38;;;13.38;;
34142;SDS011;20419;10.658;106.724;2023-03-14T04:43:16;17.40;;;13.43;;
34142;SDS011;20419;10.658;106.724;2023-03-14T04:45:44;19.30;;;14.15;;
34142;SDS011;20419;10.658;106.724;2023-03-14T04:48:11;16.48;;;13.60;;
34142;SDS011;20419;10.658;106.724;2023-03-14T04:50:38;16.48;;;14.07;;
34142;SDS011;20419;10.658;106.724;2023-03-14T04:53:05;16.67;;;14.20;;
34142;SDS011;20419;10.658;106.724;2023-03-14T04:55:33;16.70;;;13.40;;
34142;SDS011;20419;10.658;106.724;2023-03-14T04:58:00;16.25;;;13.07;;
34142;SDS011;20419;10.658;106.724;2023-03-14T05:00:28;16.77;;;13.45;;
34142;SDS011;20419;10.658;106.724;2023-03-14T05:02:55;17.27;;;13.75;;
34142;SDS011;20419;10.658;106.724;2023-03-14T05:05:22;16.70;;;14.05;;
34142;SDS011;20419;10.658;106.724;2023-03-14T05:07:49;15.45;;;13.45;;
34142;SDS011;20419;10.658;106.724;2023-03-14T05:10:17;15.70;;;13.00;;
34142;SDS011;20419;10.658;106.724;2023-03-14T05:12:44;16.23;;;13.23;;
34142;SDS011;20419;10.658;106.724;2023-03-14T05:15:11;15.63;;;13.25;;
34142;SDS011;20419;10.658;106.724;2023-03-14T05:17:38;15.82;;;13.80;;
34142;SDS011;20419;10.658;106.724;2023-03-14T05:20:06;16.88;;;13.10;;
34142;SDS011;20419;10.658;106.724;2023-03-14T05:22:38;16.60;;;13.23;;
34142;SDS011;20419;10.658;106.724;2023-03-14T05:25:06;15.90;;;14.13;;
34142;SDS011;20419;10.658;106.724;2023-03-14T05:27:34;16.97;;;13.90;;
34142;SDS011;20419;10.658;106.724;2023-03-14T05:30:03;17.38;;;14.00;;
34142;SDS011;20419;10.658;106.724;2023-03-14T05:32:30;15.48;;;13.15;;
34142;SDS011;20419;10.658;106.724;2023-03-14T05:34:58;15.02;;;13.00;;
34142;SDS011;20419;10.658;106.724;2023-03-14T05:37:26;16.35;;;12.88;;
34142;SDS011;20419;10.658;106.724;2023-03-14T05:39:53;15.70;;;13.50;;
34142;SDS011;20419;10.658;106.724;2023-03-14T05:42:20;16.05;;;13.02;;
34142;SDS011;20419;10.658;106.724;2023-03-14T05:44:48;15.13;;;13.35;;
34142;SDS011;20419;10.658;106.724;2023-03-14T05:47:15;14.68;;;12.82;;
34142;SDS011;20419;10.658;106.724;2023-03-14T05:49:42;14.98;;;12.70;;
34142;SDS011;20419;10.658;106.724;2023-03-14T05:52:09;15.27;;;12.68;;
34142;SDS011;20419;10.658;106.724;2023-03-14T05:54:37;16.88;;;13.13;;
34142;SDS011;20419;10.658;106.724;2023-03-14T05:57:04;15.80;;;13.50;;
34142;SDS011;20419;10.658;106.724;2023-03-14T05:59:31;17.17;;;13.82;;
34142;SDS011;20419;10.658;106.724;2023-03-14T06:01:58;14.93;;;13.30;;
34142;SDS011;20419;10.658;106.724;2023-03-14T06:04:26;15.80;;;14.18;;
34142;SDS011;20419;10.658;106.724;2023-03-14T06:06:53;15.48;;;13.00;;
34142;SDS011;20419;10.658;106.724;2023-03-14T06:09:20;15.52;;;12.68;;
34142;SDS011;20419;10.658;106.724;2023-03-14T06:11:49;15.27;;;13.20;;
34142;SDS011;20419;10.658;106.724;2023-03-14T06:14:16;16.10;;;14.32;;
34142;SDS011;20419;10.658;106.724;2023-03-14T06:16:43;14.45;;;12.95;;
34142;SDS011;20419;10.658;106.724;2023-03-14T06:19:11;14.88;;;13.35;;
34142;SDS011;20419;10.658;106.724;2023-03-14T06:21:38;15.20;;;13.55;;
34142;SDS011;20419;10.658;106.724;2023-03-14T06:24:05;15.30;;;13.43;;
34142;SDS011;20419;10.658;106.724;2023-03-14T06:26:32;14.57;;;12.80;;
34142;SDS011;20419;10.658;106.724;2023-03-14T06:28:59;14.38;;;12.25;;
34142;SDS011;20419;10.658;106.724;2023-03-14T06:31:29;14.25;;;12.75;;
34142;SDS011;20419;10.658;106.724;2023-03-14T06:33:56;15.27;;;13.40;;
34142;SDS011;20419;10.658;106.724;2023-03-14T06:36:23;15.65;;;13.02;;
34142;SDS011;20419;10.658;106.724;2023-03-14T06:38:50;15.38;;;12.93;;
34142;SDS011;20419;10.658;106.724;2023-03-14T06:41:17;14.65;;;13.00;;
34142;SDS011;20419;10.658;106.724;2023-03-14T06:43:45;14.88;;;13.32;;
34142;SDS011;20419;10.658;106.724;2023-03-14T06:46:12;16.02;;;13.23;;
34142;SDS011;20419;10.658;106.724;2023-03-14T06:48:39;16.05;;;14.35;;
34142;SDS011;20419;10.658;106.724;2023-03-14T06:51:05;16.73;;;13.90;;
34142;SDS011;20419;10.658;106.724;2023-03-14T06:53:33;15.25;;;13.18;;
34142;SDS011;20419;10.658;106.724;2023-03-14T06:56:00;14.43;;;12.93;;
34142;SDS011;20419;10.658;106.724;2023-03-14T06:58:27;15.43;;;13.63;;
34142;SDS011;20419;10.658;106.724;2023-03-14T07:00:54;14.68;;;12.60;;
34142;SDS011;20419;10.658;106.724;2023-03-14T07:03:22;18.02;;;13.20;;
34142;SDS011;20419;10.658;106.724;2023-03-14T07:05:50;16.50;;;13.85;;
34142;SDS011;20419;10.658;106.724;2023-03-14T07:08:17;14.68;;;12.93;;
34142;SDS011;20419;10.658;106.724;2023-03-14T07:10:44;15.80;;;13.63;;
34142;SDS011;20419;10.658;106.724;2023-03-14T07:13:11;15.25;;;13.48;;
34142;SDS011;20419;10.658;106.724;2023-03-14T07:15:38;15.10;;;13.50;;
34142;SDS011;20419;10.658;106.724;2023-03-14T07:18:05;16.40;;;13.77;;
34142;SDS011;20419;10.658;106.724;2023-03-14T07:20:32;16.10;;;12.75;;
34142;SDS011;20419;10.658;106.724;2023-03-14T07:22:59;15.40;;;13.75;;
34142;SDS011;20419;10.658;106.724;2023-03-14T07:25:28;14.57;;;13.00;;
34142;SDS011;20419;10.658;106.724;2023-03-14T07:27:55;14.18;;;12.30;;
34142;SDS011;20419;10.658;106.724;2023-03-14T07:30:22;15.40;;;13.65;;
34142;SDS011;20419;10.658;106.724;2023-03-14T07:32:50;15.15;;;13.55;;
34142;SDS011;20419;10.658;106.724;2023-03-14T07:35:17;14.52;;;13.02;;
34142;SDS011;20419;10.658;106.724;2023-03-14T07:37:44;15.05;;;13.35;;
34142;SDS011;20419;10.658;106.724;2023-03-14T07:40:12;15.15;;;13.25;;
34142;SDS011;20419;10.658;106.724;2023-03-14T07:42:41;14.93;;;13.30;;
34142;SDS011;20419;10.658;106.724;2023-03-14T07:45:09;17.55;;;14.18;;
34142;SDS011;20419;10.658;106.724;2023-03-14T07:47:36;14.75;;;13.20;;
34142;SDS011;20419;10.658;106.724;2023-03-14T07:50:04;16.38;;;13.93;;
34142;SDS011;20419;10.658;106.724;2023-03-14T07:52:31;14.57;;;13.00;;
34142;SDS011;20419;10.658;106.724;2023-03-14T07:54:58;14.07;;;12.68;;
34142;SDS011;20419;10.658;106.724;2023-03-14T07:57:25;14.45;;;12.82;;
34142;SDS011;20419;10.658;106.724;2023-03-14T07:59:52;16.40;;;13.88;;
34142;SDS011;20419;10.658;106.724;2023-03-14T08:02:19;15.15;;;13.30;;
34142;SDS011;20419;10.658;106.724;2023-03-14T08:04:47;15.17;;;13.50;;
34142;SDS011;20419;10.658;106.724;2023-03-14T08:07:15;15.95;;;13.13;;
34142;SDS011;20419;10.658;106.724;2023-03-14T08:09:42;15.02;;;13.35;;
34142;SDS011;20419;10.658;106.724;2023-03-14T08:12:09;16.58;;;13.77;;
34142;SDS011;20419;10.658;106.724;2023-03-14T08:14:36;17.08;;;14.50;;
34142;SDS011;20419;10.658;106.724;2023-03-14T08:17:03;16.23;;;14.52;;
34142;SDS011;20419;10.658;106.724;2023-03-14T08:19:33;15.50;;;13.93;;
34142;SDS011;20419;10.658;106.724;2023-03-14T08:22:00;15.88;;;14.18;;
34142;SDS011;20419;10.658;106.724;2023-03-14T08:24:28;15.73;;;14.02;;
34142;SDS011;20419;10.658;106.724;2023-03-14T08:26:55;15.15;;;13.23;;
34142;SDS011;20419;10.658;106.724;2023-03-14T08:29:22;16.90;;;14.18;;
34142;SDS011;20419;10.658;106.724;2023-03-14T08:31:49;16.50;;;13.32;;
34142;SDS011;20419;10.658;106.724;2023-03-14T08:34:16;15.23;;;13.63;;
34142;SDS011;20419;10.658;106.724;2023-03-14T08:36:43;15.18;;;13.57;;
34142;SDS011;20419;10.658;106.724;2023-03-14T08:39:10;16.45;;;13.70;;
34142;SDS011;20419;10.658;106.724;2023-03-14T08:41:37;15.60;;;13.80;;
34142;SDS011;20419;10.658;106.724;2023-03-14T08:44:09;16.23;;;13.43;;
34142;SDS011;20419;10.658;106.724;2023-03-14T08:46:39;15.18;;;13.57;;
34142;SDS011;20419;10.658;106.724;2023-03-14T08:49:06;15.90;;;13.77;;
34142;SDS011;20419;10.658;106.724;2023-03-14T08:51:33;15.45;;;13.85;;
34142;SDS011;20419;10.658;106.724;2023-03-14T08:54:00;15.60;;;14.00;;
34142;SDS011;20419;10.658;106.724;2023-03-14T08:56:27;15.45;;;13.52;;
34142;SDS011;20419;10.658;106.724;2023-03-14T08:58:55;15.50;;;13.35;;
34142;SDS011;20419;10.658;106.724;2023-03-14T09:01:22;15.32;;;13.73;;
34142;SDS011;20419;10.658;106.724;2023-03-14T09:03:50;15.90;;;13.35;;
34142;SDS011;20419;10.658;106.724;2023-03-14T09:06:17;15.32;;;13.65;;
34142;SDS011;20419;10.658;106.724;2023-03-14T09:08:45;15.90;;;13.15;;
34142;SDS011;20419;10.658;106.724;2023-03-14T09:11:12;17.58;;;14.00;;
34142;SDS011;20419;10.658;106.724;2023-03-14T09:13:39;16.45;;;14.32;;
34142;SDS011;20419;10.658;106.724;2023-03-14T09:16:07;18.35;;;14.45;;
34142;SDS011;20419;10.658;106.724;2023-03-14T09:18:34;16.00;;;14.02;;
34142;SDS011;20419;10.658;106.724;2023-03-14T09:21:01;15.52;;;13.60;;
34142;SDS011;20419;10.658;106.724;2023-03-14T09:23:29;18.33;;;14.30;;
34142;SDS011;20419;10.658;106.724;2023-03-14T09:25:57;15.93;;;14.07;;
34142;SDS011;20419;10.658;106.724;2023-03-14T09:28:24;16.52;;;14.40;;
34142;SDS011;20419;10.658;106.724;2023-03-14T09:30:51;15.88;;;13.75;;
34142;SDS011;20419;10.658;106.724;2023-03-14T09:33:18;17.42;;;13.95;;
34142;SDS011;20419;10.658;106.724;2023-03-14T09:35:45;16.98;;;13.90;;
34142;SDS011;20419;10.658;106.724;2023-03-14T09:38:15;15.32;;;13.60;;
34142;SDS011;20419;10.658;106.724;2023-03-14T09:40:42;13.98;;;12.52;;
34142;SDS011;20419;10.658;106.724;2023-03-14T09:43:10;17.38;;;13.65;;
34142;SDS011;20419;10.658;106.724;2023-03-14T09:45:39;16.20;;;14.30;;
34142;SDS011;20419;10.658;106.724;2023-03-14T09:48:10;15.30;;;13.55;;
34142;SDS011;20419;10.658;106.724;2023-03-14T09:50:51;14.13;;;12.52;;
34142;SDS011;20419;10.658;106.724;2023-03-14T09:53:24;15.90;;;13.38;;
34142;SDS011;20419;10.658;106.724;2023-03-14T09:55:52;15.65;;;13.27;;
34142;SDS011;20419;10.658;106.724;2023-03-14T09:58:21;16.02;;;13.32;;
34142;SDS011;20419;10.658;106.724;2023-03-14T10:00:49;15.15;;;13.48;;
34142;SDS011;20419;10.658;106.724;2023-03-14T10:03:35;14.90;;;12.57;;
34142;SDS011;20419;10.658;106.724;2023-03-14T10:06:02;16.45;;;14.38;;
34142;SDS011;20419;10.658;106.724;2023-03-14T10:08:30;15.05;;;13.30;;
34142;SDS011;20419;10.658;106.724;2023-03-14T10:10:57;15.20;;;13.48;;
34142;SDS011;20419;10.658;106.724;2023-03-14T10:13:26;17.92;;;13.60;;
34142;SDS011;20419;10.658;106.724;2023-03-14T10:15:55;15.00;;;12.98;;
34142;SDS011;20419;10.658;106.724;2023-03-14T10:18:27;14.55;;;12.98;;
34142;SDS011;20419;10.658;106.724;2023-03-14T10:21:05;17.15;;;13.40;;
34142;SDS011;20419;10.658;106.724;2023-03-14T10:23:33;15.55;;;13.60;;
34142;SDS011;20419;10.658;106.724;2023-03-14T10:26:05;15.05;;;12.90;;
34142;SDS011;20419;10.658;106.724;2023-03-14T10:28:42;15.73;;;12.48;;
34142;SDS011;20419;10.658;106.724;2023-03-14T10:31:10;14.70;;;12.00;;
34142;SDS011;20419;10.658;106.724;2023-03-14T10:33:37;17.45;;;14.80;;
34142;SDS011;20419;10.658;106.724;2023-03-14T10:36:18;16.00;;;14.27;;
34142;SDS011;20419;10.658;106.724;2023-03-14T10:38:46;14.52;;;12.75;;
34142;SDS011;20419;10.658;106.724;2023-03-14T10:43:44;13.93;;;12.45;;
34142;SDS011;20419;10.658;106.724;2023-03-14T10:46:19;16.30;;;12.05;;
34142;SDS011;20419;10.658;106.724;2023-03-14T10:48:47;14.48;;;12.52;;
34142;SDS011;20419;10.658;106.724;2023-03-14T10:53:59;14.13;;;12.63;;
34142;SDS011;20419;10.658;106.724;2023-03-14T10:56:26;13.55;;;11.73;;
34142;SDS011;20419;10.658;106.724;2023-03-14T10:58:56;14.57;;;13.07;;
34142;SDS011;20419;10.658;106.724;2023-03-14T11:04:20;13.50;;;12.10;;
34142;SDS011;20419;10.658;106.724;2023-03-14T11:06:56;13.70;;;12.10;;
34142;SDS011;20419;10.658;106.724;2023-03-14T11:09:50;14.27;;;12.30;;
34142;SDS011;20419;10.658;106.724;2023-03-14T11:15:25;15.35;;;11.90;;
34142;SDS011;20419;10.658;106.724;2023-03-14T11:18:12;13.15;;;11.75;;
34142;SDS011;20419;10.658;106.724;2023-03-14T11:20:48;15.07;;;13.13;;
34142;SDS011;20419;10.658;106.724;2023-03-14T11:23:21;14.63;;;13.02;;
34142;SDS011;20419;10.658;106.724;2023-03-14T11:25:54;13.55;;;11.85;;
34142;SDS011;20419;10.658;106.724;2023-03-14T11:31:00;12.88;;;11.50;;
34142;SDS011;20419;10.658;106.724;2023-03-14T11:33:45;15.40;;;11.90;;
34142;SDS011;20419;10.658;106.724;2023-03-14T11:36:26;13.55;;;12.13;;
34142;SDS011;20419;10.658;106.724;2023-03-14T11:38:58;12.18;;;10.90;;
34142;SDS011;20419;10.658;106.724;2023-03-14T11:43:59;13.20;;;11.70;;
34142;SDS011;20419;10.658;106.724;2023-03-14T11:46:59;12.82;;;11.32;;
34142;SDS011;20419;10.658;106.724;2023-03-14T11:52:17;13.07;;;11.68;;
34142;SDS011;20419;10.658;106.724;2023-03-14T11:54:53;14.27;;;11.88;;
34142;SDS011;20419;10.658;106.724;2023-03-14T11:57:22;12.75;;;11.35;;
34142;SDS011;20419;10.658;106.724;2023-03-14T12:10:19;13.70;;;11.77;;
34142;SDS011;20419;10.658;106.724;2023-03-14T12:12:46;11.55;;;10.35;;
34142;SDS011;20419;10.658;106.724;2023-03-14T12:15:20;14.13;;;11.63;;
34142;SDS011;20419;10.658;106.724;2023-03-14T12:17:53;13.45;;;11.45;;
34142;SDS011;20419;10.658;106.724;2023-03-14T12:20:27;12.38;;;11.13;;
34142;SDS011;20419;10.658;106.724;2023-03-14T12:22:55;12.38;;;10.88;;
34142;SDS011;20419;10.658;106.724;2023-03-14T12:35:38;11.77;;;10.57;;
34142;SDS011;20419;10.658;106.724;2023-03-14T12:40:58;13.30;;;10.95;;
34142;SDS011;20419;10.658;106.724;2023-03-14T12:43:29;14.23;;;11.27;;
34142;SDS011;20419;10.658;106.724;2023-03-14T12:51:17;13.20;;;10.07;;
34142;SDS011;20419;10.658;106.724;2023-03-14T12:59:28;13.55;;;10.82;;
34142;SDS011;20419;10.658;106.724;2023-03-14T13:04:48;12.55;;;10.68;;
34142;SDS011;20419;10.658;106.724;2023-03-14T13:07:31;13.63;;;10.63;;
34142;SDS011;20419;10.658;106.724;2023-03-14T13:13:19;13.02;;;10.93;;
34142;SDS011;20419;10.658;106.724;2023-03-14T13:15:38;12.85;;;11.00;;
34142;SDS011;20419;10.658;106.724;2023-03-14T13:18:19;12.27;;;10.57;;
34142;SDS011;20419;10.658;106.724;2023-03-14T13:20:58;12.27;;;10.13;;
34142;SDS011;20419;10.658;106.724;2023-03-14T13:23:33;14.82;;;11.82;;
34142;SDS011;20419;10.658;106.724;2023-03-14T13:26:00;13.73;;;10.30;;
34142;SDS011;20419;10.658;106.724;2023-03-14T13:28:30;13.40;;;10.55;;
34142;SDS011;20419;10.658;106.724;2023-03-14T13:30:59;12.02;;;9.85;;
34142;SDS011;20419;10.658;106.724;2023-03-14T13:33:27;13.52;;;10.10;;
34142;SDS011;20419;10.658;106.724;2023-03-14T13:35:57;13.20;;;11.10;;
34142;SDS011;20419;10.658;106.724;2023-03-14T13:38:26;14.48;;;10.60;;
34142;SDS011;20419;10.658;106.724;2023-03-14T13:40:58;12.32;;;9.70;;
34142;SDS011;20419;10.658;106.724;2023-03-14T13:43:30;13.20;;;10.65;;
34142;SDS011;20419;10.658;106.724;2023-03-14T13:46:06;15.35;;;11.07;;
34142;SDS011;20419;10.658;106.724;2023-03-14T13:48:43;13.10;;;10.75;;
34142;SDS011;20419;10.658;106.724;2023-03-14T13:51:11;14.27;;;10.77;;
34142;SDS011;20419;10.658;106.724;2023-03-14T13:53:49;12.45;;;10.23;;
34142;SDS011;20419;10.658;106.724;2023-03-14T13:56:28;12.75;;;10.55;;
34142;SDS011;20419;10.658;106.724;2023-03-14T13:58:55;15.25;;;10.32;;
34142;SDS011;20419;10.658;106.724;2023-03-14T14:01:28;14.02;;;10.23;;
34142;SDS011;20419;10.658;106.724;2023-03-14T14:03:59;13.13;;;10.35;;
34142;SDS011;20419;10.658;106.724;2023-03-14T14:09:01;12.63;;;10.10;;
34142;SDS011;20419;10.658;106.724;2023-03-14T14:14:05;16.17;;;10.57;;
34142;SDS011;20419;10.658;106.724;2023-03-14T14:16:37;13.18;;;9.90;;
34142;SDS011;20419;10.658;106.724;2023-03-14T14:19:12;13.13;;;10.07;;
34142;SDS011;20419;10.658;106.724;2023-03-14T14:21:41;13.75;;;10.20;;
34142;SDS011;20419;10.658;106.724;2023-03-14T14:24:12;17.25;;;11.70;;
34142;SDS011;20419;10.658;106.724;2023-03-14T14:26:40;13.40;;;9.88;;
34142;SDS011;20419;10.658;106.724;2023-03-14T14:29:16;14.63;;;10.32;;
34142;SDS011;20419;10.658;106.724;2023-03-14T14:31:47;14.90;;;10.45;;
34142;SDS011;20419;10.658;106.724;2023-03-14T14:34:20;14.65;;;10.63;;
34142;SDS011;20419;10.658;106.724;2023-03-14T14:36:51;16.45;;;10.73;;
34142;SDS011;20419;10.658;106.724;2023-03-14T14:39:26;13.70;;;9.85;;
34142;SDS011;20419;10.658;106.724;2023-03-14T14:41:54;15.98;;;10.38;;
34142;SDS011;20419;10.658;106.724;2023-03-14T14:44:29;14.48;;;9.50;;
34142;SDS011;20419;10.658;106.724;2023-03-14T14:49:33;12.23;;;9.23;;
34142;SDS011;20419;10.658;106.724;2023-03-14T14:52:08;12.60;;;10.07;;
34142;SDS011;20419;10.658;106.724;2023-03-14T14:54:57;13.25;;;9.77;;
34142;SDS011;20419;10.658;106.724;2023-03-14T14:59:56;13.80;;;9.68;;
34142;SDS011;20419;10.658;106.724;2023-03-14T15:04:54;17.42;;;10.05;;
34142;SDS011;20419;10.658;106.724;2023-03-14T15:07:22;16.52;;;9.27;;
34142;SDS011;20419;10.658;106.724;2023-03-14T15:09:49;16.92;;;9.70;;
34142;SDS011;20419;10.658;106.724;2023-03-14T15:12:17;15.05;;;9.57;;
34142;SDS011;20419;10.658;106.724;2023-03-14T15:17:12;13.75;;;8.80;;
34142;SDS011;20419;10.658;106.724;2023-03-14T15:19:39;16.85;;;10.48;;
34142;SDS011;20419;10.658;106.724;2023-03-14T15:22:13;14.68;;;9.43;;
34142;SDS011;20419;10.658;106.724;2023-03-14T15:24:41;14.63;;;9.65;;
34142;SDS011;20419;10.658;106.724;2023-03-14T15:27:17;16.80;;;10.65;;